Time;durP1;ratioP1;P1;durP2;ratioP2;P2;SDS_P1;SDS_P2;PMS_P1;PMS_P2;Temp;Humidity;BMP_temperature;BMP_pressure;BME280_temperature;BME280_humidity;BME280_pressure;Samples;Min_cycle;Max_cycle;Signal;HPM_P1;HPM_P2
2022/06/11 00:00:12;;;;;;;2.17;1.97;;;20.40;97.50;;;;;;4994004;28;20405;-71
2022/06/11 00:02:38;;;;;;;2.50;2.27;;;20.30;97.70;;;;;;4995146;28;20468;-71
2022/06/11 00:05:05;;;;;;;2.83;2.60;;;20.40;97.90;;;;;;4995030;28;20924;-71
2022/06/11 00:07:31;;;;;;;5.63;2.47;;;20.40;97.90;;;;;;4995236;28;20223;-71
2022/06/11 00:09:57;;;;;;;5.27;2.40;;;20.40;98.00;;;;;;4995409;28;20410;-71
2022/06/11 00:12:22;;;;;;;3.97;2.40;;;20.40;98.00;;;;;;4995802;28;20463;-71
2022/06/11 00:14:49;;;;;;;3.03;2.20;;;20.40;98.10;;;;;;4995300;28;20622;-71
2022/06/11 00:17:16;;;;;;;4.43;2.47;;;20.40;98.20;;;;;;4995397;28;20254;-71
2022/06/11 00:19:44;;;;;;;2.57;2.37;;;20.40;98.30;;;;;;4994994;28;20461;-71
2022/06/11 00:22:10;;;;;;;3.83;2.93;;;20.40;98.30;;;;;;4994773;28;20454;-71
2022/06/11 00:24:36;;;;;;;2.33;2.17;;;20.40;98.40;;;;;;4994530;28;20469;-71
2022/06/11 00:27:02;;;;;;;3.57;3.13;;;20.30;98.30;;;;;;4994888;28;20411;-71
2022/06/11 00:29:30;;;;;;;3.60;2.37;;;20.30;98.40;;;;;;4994780;28;20455;-71
2022/06/11 00:31:57;;;;;;;4.67;2.87;;;20.30;98.50;;;;;;4994430;28;20902;-71
2022/06/11 00:34:22;;;;;;;2.93;2.67;;;20.30;98.60;;;;;;4993221;28;20451;-71
2022/06/11 00:36:50;;;;;;;2.80;2.60;;;20.30;98.70;;;;;;4994234;28;20465;-71
2022/06/11 00:39:18;;;;;;;4.10;2.90;;;20.30;98.80;;;;;;4994188;28;20686;-72
2022/06/11 00:41:46;;;;;;;2.80;2.50;;;20.30;98.80;;;;;;4994131;28;20398;-71
2022/06/11 00:44:13;;;;;;;5.37;2.37;;;20.30;99.00;;;;;;4994238;28;20398;-71
2022/06/11 00:46:56;;;;;;;2.90;2.57;;;20.30;99.00;;;;;;4994574;28;20420;-71
2022/06/11 00:49:30;;;;;;;3.50;2.60;;;20.30;99.20;;;;;;4996698;28;20413;-72
2022/06/11 00:52:22;;;;;;;3.60;2.80;;;20.20;99.10;;;;;;4998718;28;20448;-71
2022/06/11 00:55:12;;;;;;;3.40;3.10;;;20.20;99.10;;;;;;4993902;28;20579;-71
2022/06/11 00:57:44;;;;;;;3.10;2.47;;;20.20;99.30;;;;;;5003119;28;20569;-71
2022/06/11 01:00:24;;;;;;;4.20;3.00;;;20.20;99.30;;;;;;5014274;28;20416;-71
2022/06/11 01:02:50;;;;;;;2.70;2.50;;;20.20;99.50;;;;;;5013933;28;20767;-72
2022/06/11 01:05:23;;;;;;;4.90;2.97;;;20.20;99.70;;;;;;5013642;28;20432;-72
2022/06/11 01:08:03;;;;;;;3.20;2.90;;;20.20;99.70;;;;;;5013973;28;20436;-70
2022/06/11 01:10:53;;;;;;;5.07;3.10;;;20.10;99.70;;;;;;5012962;28;20779;-71
2022/06/11 01:13:51;;;;;;;4.70;2.93;;;20.10;99.90;;;;;;5013982;28;20411;-71
2022/06/11 01:16:42;;;;;;;3.90;3.17;;;20.10;99.90;;;;;;5013109;28;20928;-71
2022/06/11 01:19:31;;;;;;;5.00;3.03;;;20.00;99.90;;;;;;5012974;28;20459;-71
2022/06/11 01:22:03;;;;;;;5.33;2.97;;;20.00;99.70;;;;;;5013154;28;20395;-71
2022/06/11 01:24:58;;;;;;;4.50;3.67;;;19.90;99.60;;;;;;4995949;28;20466;-71
2022/06/11 01:27:38;;;;;;;3.50;3.20;;;19.90;99.70;;;;;;4993422;28;20413;-71
2022/06/11 01:30:15;;;;;;;4.93;3.23;;;19.90;99.80;;;;;;4993669;28;20398;-71
2022/06/11 01:33:12;;;;;;;2.30;2.10;;;19.90;99.90;;;;;;4993185;28;20392;-71
2022/06/11 01:35:41;;;;;;;2.90;2.70;;;19.80;99.90;;;;;;4989047;28;20484;-70
2022/06/11 01:38:20;;;;;;;2.90;2.47;;;19.80;99.90;;;;;;4993271;28;20452;-70
2022/06/11 01:41:11;;;;;;;3.37;3.07;;;19.80;99.90;;;;;;4989355;28;20423;-71
2022/06/11 01:43:41;;;;;;;3.33;2.33;;;19.80;99.90;;;;;;4993354;28;20486;-71
2022/06/11 01:46:25;;;;;;;3.00;2.60;;;19.70;99.90;;;;;;4991323;28;20808;-71
2022/06/11 01:48:58;;;;;;;3.93;2.70;;;19.70;99.90;;;;;;4993094;28;20424;-71
2022/06/11 01:51:24;;;;;;;4.87;1.93;;;19.70;99.90;;;;;;4993180;28;20576;-71
2022/06/11 01:53:59;;;;;;;2.83;2.63;;;19.60;99.90;;;;;;4993225;28;20408;-71
2022/06/11 01:56:52;;;;;;;2.77;2.50;;;19.60;99.90;;;;;;4990681;28;20189;-71
2022/06/11 01:59:54;;;;;;;2.70;2.50;;;19.60;99.90;;;;;;4992703;28;20462;-71
2022/06/11 02:02:55;;;;;;;3.10;2.43;;;19.50;99.90;;;;;;4980653;28;20429;-71
2022/06/11 02:05:35;;;;;;;2.63;2.43;;;19.40;99.90;;;;;;4957032;28;20449;-71
2022/06/11 02:08:37;;;;;;;4.43;2.60;;;19.40;99.90;;;;;;4992293;28;20577;-72
2022/06/11 02:11:05;;;;;;;5.67;3.47;;;19.40;99.90;;;;;;4987392;28;20421;-71
2022/06/11 02:13:59;;;;;;;3.33;3.03;;;19.30;99.90;;;;;;4992831;28;20416;-71
2022/06/11 02:16:46;;;;;;;4.40;2.60;;;19.30;99.90;;;;;;4992492;28;20437;-72
2022/06/11 02:19:16;;;;;;;5.03;4.00;;;19.30;99.90;;;;;;4992640;28;20545;-70
2022/06/11 02:21:54;;;;;;;5.50;3.00;;;19.30;99.90;;;;;;4992968;28;20407;-70
2022/06/11 02:24:25;;;;;;;3.10;2.87;;;19.30;99.90;;;;;;4992703;28;20487;-71
2022/06/11 02:26:56;;;;;;;3.40;2.70;;;19.30;99.90;;;;;;4992320;28;20452;-70
2022/06/11 02:29:23;;;;;;;5.10;2.80;;;19.20;99.90;;;;;;4992763;28;20432;-71
2022/06/11 02:31:53;;;;;;;3.53;3.03;;;19.20;99.90;;;;;;4992627;28;20408;-71
2022/06/11 02:34:21;;;;;;;3.63;2.70;;;19.20;99.90;;;;;;4992120;28;20408;-71
2022/06/11 02:36:52;;;;;;;2.50;2.30;;;19.20;99.90;;;;;;4992201;28;20478;-71
2022/06/11 02:39:18;;;;;;;2.80;2.57;;;19.10;99.90;;;;;;4992277;28;20474;-71
2022/06/11 02:41:46;;;;;;;3.57;2.87;;;19.20;99.90;;;;;;4992177;28;20405;-71
2022/06/11 02:44:11;;;;;;;3.73;2.90;;;19.10;99.90;;;;;;4992327;28;20173;-71
2022/06/11 02:46:43;;;;;;;3.60;2.80;;;19.10;99.90;;;;;;4991938;28;20485;-71
2022/06/11 02:49:17;;;;;;;3.80;2.80;;;19.10;99.90;;;;;;4992095;28;20256;-70
2022/06/11 02:51:44;;;;;;;3.60;2.70;;;19.10;99.90;;;;;;4990800;28;20423;-71
2022/06/11 02:54:10;;;;;;;2.70;2.50;;;19.10;99.90;;;;;;4992202;28;20412;-71
2022/06/11 02:56:36;;;;;;;3.90;3.20;;;19.10;99.90;;;;;;4991605;28;21025;-70
2022/06/11 02:59:01;;;;;;;6.80;2.43;;;19.10;99.90;;;;;;4994994;28;20234;-70
2022/06/11 03:01:27;;;;;;;3.90;2.40;;;19.10;99.90;;;;;;4995846;28;20169;-71
2022/06/11 03:03:53;;;;;;;3.13;2.10;;;19.10;99.90;;;;;;4995728;28;20188;-71
2022/06/11 03:06:22;;;;;;;2.10;2.00;;;19.10;99.90;;;;;;4995657;28;20192;-71
2022/06/11 03:08:47;;;;;;;2.43;2.23;;;19.10;99.90;;;;;;4996051;28;20990;-72
2022/06/11 03:11:14;;;;;;;2.03;1.93;;;19.10;99.90;;;;;;4996365;28;20492;-71
2022/06/11 03:13:39;;;;;;;3.37;3.07;;;19.20;99.90;;;;;;4995679;28;20259;-72
2022/06/11 03:16:06;;;;;;;2.30;2.00;;;19.20;99.90;;;;;;4995495;28;20542;-71
2022/06/11 03:18:32;;;;;;;3.87;3.13;;;19.20;99.90;;;;;;4996155;28;20203;-72
2022/06/11 03:20:58;;;;;;;2.40;2.20;;;19.30;99.90;;;;;;4996027;28;20404;-71
2022/06/11 03:23:26;;;;;;;2.77;2.30;;;19.30;99.90;;;;;;4995908;28;20408;-72
2022/06/11 03:25:52;;;;;;;3.37;2.40;;;19.30;99.90;;;;;;4995499;28;20448;-73
2022/06/11 03:28:23;;;;;;;2.70;2.50;;;19.30;99.90;;;;;;4996012;28;20419;-72
2022/06/11 03:30:49;;;;;;;2.70;2.13;;;19.40;99.90;;;;;;4994803;28;20418;-72
2022/06/11 03:33:15;;;;;;;2.33;2.13;;;19.40;99.90;;;;;;4995724;28;20430;-71
2022/06/11 03:35:41;;;;;;;2.77;2.57;;;19.40;99.90;;;;;;4995493;28;20428;-71
2022/06/11 03:38:08;;;;;;;3.30;2.10;;;19.40;99.90;;;;;;4995719;28;20450;-71
2022/06/11 03:40:34;;;;;;;5.63;2.33;;;19.50;99.90;;;;;;4995778;28;20420;-71
2022/06/11 03:43:00;;;;;;;2.13;1.93;;;19.50;99.90;;;;;;4995462;28;20410;-71
2022/06/11 03:45:26;;;;;;;2.77;2.30;;;19.50;99.90;;;;;;4993814;28;20437;-71
2022/06/11 03:47:52;;;;;;;2.10;2.00;;;19.60;99.90;;;;;;4995725;28;20500;-71
2022/06/11 03:50:30;;;;;;;2.53;2.30;;;19.60;99.90;;;;;;4995622;28;20487;-71
2022/06/11 03:52:56;;;;;;;2.70;2.50;;;19.60;99.90;;;;;;4995641;28;20642;-71
2022/06/11 03:55:24;;;;;;;2.30;2.10;;;19.70;99.90;;;;;;4995104;28;20421;-71
2022/06/11 03:57:51;;;;;;;2.50;2.30;;;19.70;99.90;;;;;;4995164;28;20407;-72
2022/06/11 04:01:14;;;;;;;2.20;2.00;;;19.70;99.90;;;;;;4995250;28;20471;-71
2022/06/11 04:03:06;;;;;;;2.60;2.40;;;19.80;99.90;;;;;;4995277;28;20479;-70
2022/06/11 04:05:32;;;;;;;2.63;1.80;;;19.80;99.90;;;;;;4995044;28;20923;-70
2022/06/11 04:07:58;;;;;;;3.27;1.83;;;19.80;99.90;;;;;;4995141;28;20253;-71
2022/06/11 04:10:24;;;;;;;3.13;2.07;;;19.90;99.90;;;;;;4995004;28;20849;-71
2022/06/11 04:12:49;;;;;;;2.63;1.80;;;19.90;99.90;;;;;;4995041;28;20180;-71
2022/06/11 04:15:15;;;;;;;2.30;1.93;;;19.90;99.90;;;;;;4994637;28;20697;-71
2022/06/11 04:17:41;;;;;;;2.03;1.93;;;19.90;99.90;;;;;;4994949;28;20235;-71
2022/06/11 04:20:07;;;;;;;1.80;1.70;;;20.00;99.90;;;;;;4995214;28;20177;-71
2022/06/11 04:22:32;;;;;;;1.87;1.70;;;20.00;99.90;;;;;;4995100;28;20219;-71
2022/06/11 04:24:58;;;;;;;2.40;2.20;;;20.10;99.90;;;;;;4994747;28;21231;-71
2022/06/11 04:27:24;;;;;;;4.27;2.10;;;20.10;99.90;;;;;;4994935;28;20237;-71
2022/06/11 04:29:55;;;;;;;3.47;1.93;;;20.20;99.90;;;;;;4994752;28;20171;-71
2022/06/11 04:32:22;;;;;;;2.27;2.07;;;20.20;99.90;;;;;;4994713;28;20439;-71
2022/06/11 04:34:49;;;;;;;2.43;1.83;;;20.30;99.90;;;;;;4994495;28;20505;-71
2022/06/11 04:37:18;;;;;;;3.83;2.40;;;20.30;99.90;;;;;;4994904;28;20433;-71
2022/06/11 04:39:47;;;;;;;2.63;2.43;;;20.30;99.90;;;;;;4994687;28;20445;-71
2022/06/11 04:42:14;;;;;;;2.70;2.13;;;20.40;99.90;;;;;;4994509;28;20441;-72
2022/06/11 04:44:41;;;;;;;2.30;1.63;;;20.40;99.90;;;;;;4994382;28;20416;-71
2022/06/11 04:47:08;;;;;;;2.47;2.07;;;20.50;99.90;;;;;;4994808;28;20496;-70
2022/06/11 04:49:34;;;;;;;2.30;2.10;;;20.50;99.90;;;;;;4993361;28;20999;-70
2022/06/11 04:51:59;;;;;;;3.60;2.40;;;20.60;99.90;;;;;;4994556;28;20494;-71
2022/06/11 04:54:25;;;;;;;2.90;2.37;;;20.70;99.90;;;;;;4994275;28;20176;-70
2022/06/11 04:56:50;;;;;;;2.10;1.90;;;20.70;99.90;;;;;;4993934;28;20191;-71
2022/06/11 04:59:16;;;;;;;4.17;2.37;;;20.70;99.90;;;;;;4992956;28;20233;-70
2022/06/11 05:01:42;;;;;;;2.67;1.87;;;20.80;99.90;;;;;;4993101;28;20177;-70
2022/06/11 05:04:10;;;;;;;5.03;2.10;;;20.80;99.90;;;;;;4998493;28;20256;-71
2022/06/11 05:06:39;;;;;;;2.60;2.40;;;20.90;99.90;;;;;;5000125;28;20435;-71
2022/06/11 05:09:06;;;;;;;3.33;1.97;;;21.00;99.90;;;;;;5000732;28;20902;-71
2022/06/11 05:11:32;;;;;;;1.80;1.70;;;21.10;99.90;;;;;;5005965;28;20472;-71
2022/06/11 05:13:58;;;;;;;3.03;1.90;;;21.00;99.90;;;;;;4998094;28;20432;-72
2022/06/11 05:16:24;;;;;;;2.10;2.00;;;21.10;99.90;;;;;;4993930;28;20447;-72
2022/06/11 05:18:50;;;;;;;2.47;1.80;;;21.00;99.90;;;;;;4996606;28;20278;-71
2022/06/11 05:21:16;;;;;;;2.43;2.30;;;21.00;99.90;;;;;;4995094;28;20414;-72
2022/06/11 05:23:41;;;;;;;5.77;2.00;;;20.90;99.90;;;;;;4994211;28;20422;-71
2022/06/11 05:26:14;;;;;;;2.83;2.00;;;20.90;99.90;;;;;;4994029;28;20216;-72
2022/06/11 05:28:40;;;;;;;2.90;1.87;;;21.10;99.90;;;;;;5048278;23;20224;-69
2022/06/11 05:31:05;;;;;;;3.17;2.33;;;21.20;99.90;;;;;;5032826;28;20405;-69
2022/06/11 05:33:31;;;;;;;2.20;2.07;;;21.30;99.90;;;;;;5033137;28;20545;-70
2022/06/11 05:35:57;;;;;;;3.07;2.03;;;21.20;99.90;;;;;;5033712;28;20243;-70
2022/06/11 05:38:26;;;;;;;1.90;1.73;;;21.30;99.90;;;;;;5049970;28;20206;-69
2022/06/11 05:40:53;;;;;;;2.40;2.20;;;21.20;99.90;;;;;;5036377;28;20438;-70
2022/06/11 05:43:19;;;;;;;3.80;2.17;;;21.20;99.90;;;;;;5034013;28;20888;-70
2022/06/11 05:45:54;;;;;;;2.07;1.97;;;21.40;99.90;;;;;;5031461;28;20452;-70
2022/06/11 05:48:25;;;;;;;3.90;1.90;;;21.60;99.90;;;;;;5032386;28;20437;-69
2022/06/11 05:50:54;;;;;;;2.20;2.10;;;21.50;99.90;;;;;;5033118;28;20421;-71
2022/06/11 05:53:22;;;;;;;5.97;2.30;;;21.80;99.90;;;;;;5032898;28;20404;-70
2022/06/11 05:55:49;;;;;;;2.37;1.83;;;21.80;99.90;;;;;;5032552;28;20503;-70
2022/06/11 05:58:21;;;;;;;2.20;2.00;;;21.80;99.90;;;;;;5032314;28;20942;-70
2022/06/11 06:00:48;;;;;;;3.40;2.07;;;21.90;99.90;;;;;;5032567;28;20452;-69
2022/06/11 06:03:13;;;;;;;5.10;2.17;;;22.00;99.90;;;;;;5032742;28;20402;-70
2022/06/11 06:05:39;;;;;;;2.40;1.80;;;22.10;99.90;;;;;;5032374;28;20409;-69
2022/06/11 06:08:06;;;;;;;2.20;2.00;;;22.30;99.90;;;;;;5032416;28;20190;-70
2022/06/11 06:10:31;;;;;;;4.93;1.80;;;22.30;99.90;;;;;;5032421;28;20180;-70
2022/06/11 06:12:57;;;;;;;3.83;1.70;;;22.50;99.90;;;;;;5032642;28;20417;-69
2022/06/11 06:15:25;;;;;;;1.77;1.67;;;22.20;99.90;;;;;;5032088;28;20175;-70
2022/06/11 06:17:52;;;;;;;1.83;1.73;;;22.40;99.90;;;;;;5032392;28;20288;-70
2022/06/11 06:20:20;;;;;;;2.97;2.67;;;22.50;99.90;;;;;;5032015;28;20416;-69
2022/06/11 06:22:46;;;;;;;3.37;2.10;;;23.00;99.90;;;;;;5031887;28;20403;-70
2022/06/11 06:25:14;;;;;;;2.10;1.90;;;22.70;99.90;;;;;;5031782;28;20408;-70
2022/06/11 06:27:40;;;;;;;2.13;1.87;;;22.60;99.90;;;;;;5031560;28;20543;-70
2022/06/11 06:30:06;;;;;;;2.83;1.90;;;22.70;99.90;;;;;;5031751;28;20419;-69
2022/06/11 06:32:32;;;;;;;2.20;2.00;;;22.80;99.90;;;;;;5030976;28;20429;-70
2022/06/11 06:34:58;;;;;;;5.90;1.87;;;22.70;99.90;;;;;;5031964;28;20474;-70
2022/06/11 06:37:24;;;;;;;2.10;1.83;;;22.80;99.80;;;;;;5031739;28;20194;-70
2022/06/11 06:39:49;;;;;;;2.07;1.87;;;22.70;99.60;;;;;;5031752;28;20190;-70
2022/06/11 06:42:15;;;;;;;1.70;1.60;;;22.90;99.50;;;;;;5031524;28;20174;-69
2022/06/11 06:44:40;;;;;;;4.00;2.37;;;22.90;99.50;;;;;;5031407;28;20214;-70
2022/06/11 06:47:06;;;;;;;1.70;1.60;;;23.00;99.80;;;;;;5031447;28;20219;-70
2022/06/11 06:49:32;;;;;;;1.50;1.40;;;23.20;99.00;;;;;;5032719;28;20166;-70
2022/06/11 06:51:57;;;;;;;1.77;1.67;;;23.10;99.30;;;;;;5031786;28;20170;-69
2022/06/11 06:54:23;;;;;;;4.63;2.47;;;23.20;99.80;;;;;;5033385;28;20171;-69
2022/06/11 06:56:49;;;;;;;3.80;2.10;;;23.40;99.50;;;;;;5039552;28;20288;-69
2022/06/11 06:59:14;;;;;;;1.87;1.70;;;23.30;99.10;;;;;;5033900;28;20267;-70
2022/06/11 07:01:40;;;;;;;2.20;1.67;;;23.10;98.90;;;;;;5033634;28;20583;-70
2022/06/11 07:04:06;;;;;;;2.70;2.00;;;23.30;99.20;;;;;;5048980;28;20643;-69
2022/06/11 07:06:33;;;;;;;2.70;1.57;;;23.30;99.90;;;;;;5041946;28;20216;-69
2022/06/11 07:08:59;;;;;;;1.87;1.77;;;23.70;99.90;;;;;;5031753;28;20643;-70
2022/06/11 07:11:25;;;;;;;1.93;1.83;;;23.80;99.20;;;;;;5037284;28;20424;-70
2022/06/11 07:13:50;;;;;;;2.30;1.80;;;23.50;99.20;;;;;;5031857;28;20413;-70
2022/06/11 07:16:21;;;;;;;6.47;2.07;;;23.60;99.90;;;;;;5031529;28;20229;-69
2022/06/11 07:18:53;;;;;;;2.90;1.97;;;23.70;99.40;;;;;;5032415;28;20202;-70
2022/06/11 07:21:41;;;;;;;2.03;1.67;;;23.90;99.10;;;;;;5031641;28;20402;-70
2022/06/11 07:24:19;;;;;;;3.63;2.07;;;24.30;98.30;;;;;;5030957;28;20422;-70
2022/06/11 07:26:50;;;;;;;5.07;2.07;;;24.10;97.90;;;;;;5031142;28;20399;-70
2022/06/11 07:29:45;;;;;;;1.90;1.80;;;23.90;98.50;;;;;;5032077;28;20415;-70
2022/06/11 07:32:16;;;;;;;2.90;2.10;;;24.00;98.80;;;;;;5031617;28;20418;-71
2022/06/11 07:34:42;;;;;;;1.83;1.73;;;24.10;99.00;;;;;;5031588;28;21111;-71
2022/06/11 07:37:08;;;;;;;1.70;1.60;;;24.00;98.70;;;;;;5032335;28;20532;-71
2022/06/11 07:39:34;;;;;;;3.30;2.00;;;24.00;98.30;;;;;;5036085;28;20465;-70
2022/06/11 07:42:00;;;;;;;2.83;1.83;;;24.20;98.10;;;;;;5051777;28;20410;-71
2022/06/11 07:44:25;;;;;;;2.80;1.90;;;24.00;98.40;;;;;;5052446;28;20501;-70
2022/06/11 07:46:51;;;;;;;2.40;2.03;;;24.10;98.40;;;;;;5055003;28;20211;-71
2022/06/11 07:49:17;;;;;;;2.93;2.10;;;24.50;98.50;;;;;;5054781;28;20180;-70
2022/06/11 07:51:43;;;;;;;2.30;2.10;;;24.30;98.30;;;;;;5055038;28;20634;-70
2022/06/11 07:54:09;;;;;;;1.67;1.57;;;24.60;98.80;;;;;;5055433;28;20193;-71
2022/06/11 07:56:37;;;;;;;2.20;1.90;;;24.90;98.10;;;;;;5054929;28;20406;-68
2022/06/11 07:59:03;;;;;;;1.90;1.70;;;25.00;97.70;;;;;;5054926;28;20288;-69
2022/06/11 08:01:29;;;;;;;2.47;1.83;;;25.60;96.70;;;;;;5054984;28;20438;-70
2022/06/11 08:03:54;;;;;;;1.70;1.60;;;25.60;95.90;;;;;;5054868;28;20164;-69
2022/06/11 08:06:20;;;;;;;2.50;1.60;;;25.70;96.50;;;;;;5054576;28;20249;-70
2022/06/11 08:08:46;;;;;;;1.43;1.33;;;25.40;95.40;;;;;;5054401;28;20577;-70
2022/06/11 08:11:11;;;;;;;1.73;1.63;;;26.30;96.80;;;;;;5054779;28;20228;-70
2022/06/11 08:13:37;;;;;;;3.40;2.10;;;26.70;95.50;;;;;;5054353;28;20413;-70
2022/06/11 08:16:03;;;;;;;1.70;1.33;;;27.50;93.50;;;;;;5054376;28;20587;-70
2022/06/11 08:18:31;;;;;;;3.10;1.70;;;26.80;93.20;;;;;;5054365;28;20281;-70
2022/06/11 08:20:56;;;;;;;2.50;1.60;;;27.10;93.90;;;;;;5055950;28;20171;-70
2022/06/11 08:23:23;;;;;;;1.73;1.63;;;26.90;92.80;;;;;;5054515;28;20413;-71
2022/06/11 08:25:49;;;;;;;1.47;1.37;;;26.90;92.20;;;;;;5054133;28;20178;-71
2022/06/11 08:28:16;;;;;;;1.93;1.50;;;26.70;92.60;;;;;;5054007;28;20480;-71
2022/06/11 08:30:42;;;;;;;1.73;1.47;;;26.90;92.60;;;;;;5054233;28;20921;-71
2022/06/11 08:33:08;;;;;;;2.60;1.83;;;27.30;92.50;;;;;;5053976;28;20489;-69
2022/06/11 08:35:34;;;;;;;1.50;1.40;;;28.30;91.60;;;;;;5054087;28;20515;-72
2022/06/11 08:38:02;;;;;;;2.27;1.60;;;27.40;90.30;;;;;;5053910;28;20799;-70
2022/06/11 08:40:36;;;;;;;3.47;1.50;;;28.60;90.60;;;;;;5054366;28;20405;-72
2022/06/11 08:43:14;;;;;;;2.77;2.00;;;28.10;89.00;;;;;;5056748;28;20420;-70
2022/06/11 08:45:47;;;;;;;1.57;1.47;;;27.70;91.00;;;;;;5057437;28;20431;-71
2022/06/11 08:48:20;;;;;;;1.57;1.47;;;27.90;89.70;;;;;;5053760;28;20478;-70
2022/06/11 08:51:02;;;;;;;2.13;1.67;;;27.80;89.40;;;;;;5052338;28;20428;-70
2022/06/11 08:53:29;;;;;;;1.63;1.30;;;28.00;88.30;;;;;;5054459;28;20439;-71
2022/06/11 08:55:56;;;;;;;2.03;1.10;;;27.70;85.50;;;;;;5052477;28;20433;-69
2022/06/11 08:58:38;;;;;;;2.07;1.87;;;28.10;86.20;;;;;;5054348;28;20460;-70
2022/06/11 09:01:13;;;;;;;2.07;1.10;;;27.60;87.60;;;;;;5055946;28;20717;-70
2022/06/11 09:03:53;;;;;;;1.43;1.33;;;27.60;85.90;;;;;;5053242;28;20818;-71
2022/06/11 09:06:38;;;;;;;1.40;1.30;;;27.80;89.60;;;;;;5054018;28;20496;-70
2022/06/11 09:09:29;;;;;;;1.23;1.13;;;28.40;88.40;;;;;;5053438;28;20401;-70
2022/06/11 09:12:08;;;;;;;1.73;1.20;;;29.10;83.30;;;;;;5053772;28;20409;-68
2022/06/11 09:15:11;;;;;;;1.23;1.13;;;29.60;81.40;;;;;;5053196;28;20413;-69
2022/06/11 09:17:58;;;;;;;2.40;1.57;;;28.90;82.00;;;;;;5043374;28;20448;-69
2022/06/11 09:21:01;;;;;;;2.07;1.47;;;29.10;84.10;;;;;;5053334;28;20441;-69
2022/06/11 09:23:58;;;;;;;1.30;1.20;;;28.50;83.90;;;;;;5021441;28;20491;-71
2022/06/11 09:26:38;;;;;;;1.50;1.40;;;28.60;83.10;;;;;;5052974;28;20405;-69
2022/06/11 09:29:16;;;;;;;1.30;1.20;;;29.40;81.40;;;;;;5053329;28;20894;-69
2022/06/11 09:32:06;;;;;;;1.30;1.20;;;28.90;80.30;;;;;;5053050;28;20393;-69
2022/06/11 09:34:46;;;;;;;1.93;1.50;;;28.70;83.20;;;;;;5052845;28;20856;-69
2022/06/11 09:37:38;;;;;;;2.10;1.20;;;28.20;81.80;;;;;;5053049;28;20416;-70
2022/06/11 09:40:30;;;;;;;6.70;1.70;;;28.20;81.10;;;;;;5052955;28;20465;-69
2022/06/11 09:43:14;;;;;;;1.90;1.57;;;27.90;82.10;;;;;;5052765;28;20778;-69
2022/06/11 09:45:52;;;;;;;2.00;1.23;;;28.40;83.90;;;;;;5052630;28;20412;-69
2022/06/11 09:48:50;;;;;;;1.50;1.40;;;28.30;81.90;;;;;;5052860;28;20855;-69
2022/06/11 09:51:18;;;;;;;3.57;1.73;;;28.50;81.20;;;;;;5051690;28;20405;-70
2022/06/11 09:53:47;;;;;;;1.73;1.43;;;28.80;80.90;;;;;;5052672;28;20429;-70
2022/06/11 09:56:19;;;;;;;1.53;1.20;;;29.30;80.50;;;;;;5052208;28;20487;-69
2022/06/11 09:58:53;;;;;;;1.83;1.73;;;29.00;79.90;;;;;;5052367;28;20457;-69
2022/06/11 10:01:28;;;;;;;1.53;1.33;;;28.40;80.90;;;;;;5052442;28;20507;-70
2022/06/11 10:04:00;;;;;;;1.50;1.40;;;28.70;80.90;;;;;;5052454;28;20397;-69
2022/06/11 10:06:34;;;;;;;3.40;2.80;;;28.90;80.30;;;;;;5052142;28;20860;-69
2022/06/11 10:09:02;;;;;;;2.33;2.13;;;28.80;81.90;;;;;;5052269;28;20448;-70
2022/06/11 10:11:30;;;;;;;2.70;1.60;;;29.20;80.70;;;;;;5052476;28;20428;-69
2022/06/11 10:14:28;;;;;;;1.60;1.30;;;28.40;79.80;;;;;;5053313;28;20413;-69
2022/06/11 10:16:52;;;;;;;1.33;1.23;;;28.70;80.60;;;;;;5052372;28;20723;-69
2022/06/11 10:19:24;;;;;;;1.10;1.00;;;28.10;79.70;;;;;;5051985;28;20456;-69
2022/06/11 10:22:05;;;;;;;4.30;1.77;;;28.60;78.40;;;;;;5052634;28;20459;-69
2022/06/11 10:24:34;;;;;;;2.50;1.77;;;29.00;78.20;;;;;;5052304;28;20401;-69
2022/06/11 10:27:13;;;;;;;2.20;1.33;;;28.80;74.30;;;;;;5052668;28;20973;-69
2022/06/11 10:29:51;;;;;;;1.43;1.30;;;28.70;74.00;;;;;;5052932;28;20401;-69
2022/06/11 10:32:27;;;;;;;1.23;1.13;;;27.90;74.20;;;;;;5055446;28;20432;-70
2022/06/11 10:35:16;;;;;;;1.83;1.27;;;28.20;77.20;;;;;;5052232;28;20409;-69
2022/06/11 10:38:02;;;;;;;1.80;1.10;;;28.70;74.60;;;;;;5052506;28;20417;-68
2022/06/11 10:40:36;;;;;;;2.33;1.40;;;28.60;74.70;;;;;;5052297;28;20424;-70
2022/06/11 10:43:20;;;;;;;1.57;1.00;;;28.80;74.40;;;;;;5052015;28;20393;-69
2022/06/11 10:45:48;;;;;;;2.03;1.10;;;29.10;73.50;;;;;;5051707;28;20401;-68
2022/06/11 10:48:21;;;;;;;1.73;1.27;;;29.10;74.80;;;;;;5043833;28;20458;-69
2022/06/11 10:50:48;;;;;;;3.17;1.23;;;29.30;73.70;;;;;;5034496;28;20460;-72
2022/06/11 10:53:36;;;;;;;1.53;1.20;;;29.00;72.80;;;;;;5032068;28;20837;-70
2022/06/11 10:56:19;;;;;;;2.80;1.50;;;29.00;71.80;;;;;;5034422;28;20409;-71
2022/06/11 10:59:05;;;;;;;2.10;1.10;;;28.70;73.00;;;;;;5033601;28;20450;-70
2022/06/11 11:02:03;;;;;;;1.40;1.30;;;28.60;74.00;;;;;;5043067;28;20543;-69
2022/06/11 11:04:54;;;;;;;1.20;1.03;;;28.20;73.70;;;;;;5050846;28;20408;-69
2022/06/11 11:07:20;;;;;;;2.17;1.20;;;28.40;74.40;;;;;;5051722;28;20865;-69
2022/06/11 11:09:47;;;;;;;1.57;1.10;;;29.00;73.40;;;;;;5052088;28;20436;-69
2022/06/11 11:12:24;;;;;;;1.87;0.90;;;29.50;73.50;;;;;;5051427;28;20405;-70
2022/06/11 11:15:18;;;;;;;1.20;1.10;;;28.40;73.80;;;;;;5051695;28;20451;-69
2022/06/11 11:17:48;;;;;;;2.80;1.17;;;28.90;75.10;;;;;;5049703;28;20433;-70
2022/06/11 11:20:40;;;;;;;1.10;1.00;;;28.90;75.20;;;;;;5055061;28;20456;-69
2022/06/11 11:23:09;;;;;;;1.37;1.27;;;28.80;74.20;;;;;;5048998;28;20969;-69
2022/06/11 11:25:44;;;;;;;1.43;1.33;;;28.40;74.40;;;;;;5055278;28;20496;-68
2022/06/11 11:28:41;;;;;;;0.97;0.87;;;28.20;75.00;;;;;;5064612;23;20489;-67
2022/06/11 11:31:09;;;;;;;1.27;1.00;;;28.40;76.10;;;;;;5027817;28;20414;-66
2022/06/11 11:33:37;;;;;;;1.70;1.20;;;28.70;74.10;;;;;;5036267;28;20762;-66
2022/06/11 11:36:21;;;;;;;2.47;1.27;;;28.40;74.60;;;;;;5035836;28;20398;-66
2022/06/11 11:39:12;;;;;;;1.43;0.97;;;28.30;76.50;;;;;;5035903;28;20497;-66
2022/06/11 11:41:58;;;;;;;1.20;1.10;;;28.70;74.40;;;;;;5035750;28;20406;-66
2022/06/11 11:44:24;;;;;;;1.97;1.07;;;29.00;75.00;;;;;;5036456;28;20433;-66
2022/06/11 11:46:54;;;;;;;1.53;1.30;;;29.20;73.30;;;;;;5034027;28;20398;-65
2022/06/11 11:49:24;;;;;;;1.10;1.00;;;29.20;71.20;;;;;;5034551;28;20718;-66
2022/06/11 11:51:51;;;;;;;1.20;1.10;;;28.70;72.90;;;;;;5034521;28;20406;-66
2022/06/11 11:54:23;;;;;;;2.20;1.20;;;29.20;71.60;;;;;;5034531;28;20896;-66
2022/06/11 11:56:59;;;;;;;3.73;1.10;;;29.60;72.40;;;;;;5034335;28;20409;-66
2022/06/11 11:59:49;;;;;;;2.40;1.10;;;29.10;71.30;;;;;;5034862;28;20489;-66
2022/06/11 12:02:23;;;;;;;1.73;1.07;;;28.30;72.30;;;;;;5034777;28;20924;-65
2022/06/11 12:05:01;;;;;;;2.83;1.20;;;28.40;73.30;;;;;;5033359;28;20507;-66
2022/06/11 12:07:36;;;;;;;1.10;0.97;;;27.70;72.80;;;;;;5033980;28;20488;-65
2022/06/11 12:10:29;;;;;;;1.17;1.07;;;27.40;74.80;;;;;;5034135;28;20738;-67
2022/06/11 12:12:56;;;;;;;1.57;1.27;;;27.70;73.80;;;;;;5029413;28;20424;-66
2022/06/11 12:15:23;;;;;;;2.10;1.10;;;27.80;75.10;;;;;;5033529;28;20398;-65
2022/06/11 12:17:56;;;;;;;1.00;0.90;;;28.00;74.00;;;;;;5034032;28;20509;-65
2022/06/11 12:20:43;;;;;;;1.87;1.00;;;27.80;72.80;;;;;;5033980;28;20418;-65
2022/06/11 12:23:40;;;;;;;1.03;0.93;;;27.30;76.20;;;;;;5033818;28;20452;-66
2022/06/11 12:26:13;;;;;;;1.30;1.20;;;27.40;77.30;;;;;;5033730;28;20398;-68
2022/06/11 12:28:48;;;;;;;1.73;1.17;;;27.70;78.10;;;;;;5033235;28;20976;-67
2022/06/11 12:31:15;;;;;;;1.50;1.13;;;27.40;80.00;;;;;;5032461;28;20413;-66
2022/06/11 12:33:43;;;;;;;2.07;1.73;;;27.80;80.20;;;;;;5033703;28;20415;-66
2022/06/11 12:36:34;;;;;;;1.80;1.53;;;28.20;80.20;;;;;;5033674;28;20413;-67
2022/06/11 12:39:19;;;;;;;3.43;1.30;;;28.00;81.10;;;;;;5033611;28;20462;-69
2022/06/11 12:41:54;;;;;;;3.50;1.50;;;27.60;83.70;;;;;;5033641;28;20467;-66
2022/06/11 12:45:02;;;;;;;2.30;1.37;;;27.20;84.90;;;;;;5033322;28;20405;-67
2022/06/11 12:48:02;;;;;;;2.80;1.40;;;26.90;86.50;;;;;;5027696;28;20934;-65
2022/06/11 12:50:45;;;;;;;1.47;1.30;;;26.70;86.30;;;;;;5033258;28;20404;-66
2022/06/11 12:53:17;;;;;;;3.47;1.50;;;26.60;87.70;;;;;;5033213;28;20481;-66
2022/06/11 12:56:05;;;;;;;1.60;1.50;;;26.50;88.40;;;;;;5032805;28;20393;-65
2022/06/11 12:58:39;;;;;;;3.03;1.47;;;26.70;88.30;;;;;;5032770;28;20934;-66
2022/06/11 13:01:19;;;;;;;1.50;1.40;;;26.80;87.80;;;;;;5033262;28;20408;-66
2022/06/11 13:04:10;;;;;;;1.53;1.23;;;26.80;88.50;;;;;;5033043;28;20413;-66
2022/06/11 13:07:02;;;;;;;1.80;1.50;;;26.90;88.30;;;;;;5033150;28;20409;-66
2022/06/11 13:09:58;;;;;;;1.67;1.57;;;26.60;89.20;;;;;;5033016;28;20409;-65
2022/06/11 13:12:56;;;;;;;2.67;1.80;;;26.70;89.50;;;;;;5032945;28;20451;-65
2022/06/11 13:16:00;;;;;;;3.80;2.00;;;27.00;89.60;;;;;;5031601;28;20397;-66
2022/06/11 13:19:02;;;;;;;3.10;2.90;;;27.40;88.90;;;;;;4995751;28;20467;-65